createdAt,value
2024-01-18T00:00:14.666Z,98522.97
2024-01-18T00:01:16.746Z,98528.19
2024-01-18T00:02:18.779Z,98526.53
2024-01-18T00:03:20.822Z,98521.88
2024-01-18T00:04:23.061Z,98527.38
2024-01-18T00:05:25.135Z,98523.78
2024-01-18T00:06:28.345Z,98522.72
2024-01-18T00:07:30.927Z,98529.03
2024-01-18T00:08:33.019Z,98527.09
2024-01-18T00:09:35.036Z,98532.88
2024-01-18T00:10:37.026Z,98538.09
2024-01-18T00:11:39.030Z,98529.84
2024-01-18T00:12:41.132Z,98532.34
2024-01-18T00:13:43.578Z,98540.56
2024-01-18T00:14:45.607Z,98540.56
2024-01-18T00:15:47.612Z,98542.50
2024-01-18T00:16:49.595Z,98531.78
2024-01-18T00:17:51.866Z,98534.78
2024-01-18T00:18:54.105Z,98535.06
2024-01-18T00:19:56.383Z,98546.59
2024-01-18T00:20:58.432Z,98549.59
2024-01-18T00:22:00.620Z,98547.13
2024-01-18T00:23:02.629Z,98540.78
2024-01-18T00:24:04.901Z,98546.00
2024-01-18T00:25:08.205Z,98557.00
2024-01-18T00:26:10.610Z,98560.28
2024-01-18T00:27:12.942Z,98565.78
2024-01-18T00:28:14.971Z,98564.13
2024-01-18T00:29:17.019Z,98557.53
2024-01-18T00:30:19.848Z,98567.41
2024-01-18T00:31:21.947Z,98568.25
2024-01-18T00:32:24.782Z,98573.72
2024-01-18T00:33:27.024Z,98574.59
2024-01-18T00:34:29.156Z,98588.84
2024-01-18T00:35:31.238Z,98584.97
2024-01-18T00:36:33.333Z,98583.31
2024-01-18T00:37:35.332Z,98588.81
2024-01-18T00:38:37.344Z,98588.81
2024-01-18T00:39:43.467Z,98597.88
2024-01-18T00:40:45.570Z,98595.13
2024-01-18T00:41:48.363Z,98605.84
2024-01-18T00:42:50.372Z,98605.84
2024-01-18T00:43:52.334Z,98611.91
2024-01-18T00:44:54.354Z,98618.50
2024-01-18T00:45:56.364Z,98611.66
2024-01-18T00:46:58.395Z,98614.63
2024-01-18T00:48:00.528Z,98613.53
2024-01-18T00:49:02.836Z,98616.28
2024-01-18T00:50:05.382Z,98618.75
2024-01-18T00:51:07.429Z,98615.75
2024-01-18T00:52:09.453Z,98614.94
2024-01-18T00:53:11.441Z,98622.31
2024-01-18T00:54:13.420Z,98623.41
2024-01-18T00:55:15.505Z,98629.72
2024-01-18T00:56:17.540Z,98632.22
2024-01-18T00:57:19.569Z,98637.16
2024-01-18T00:58:21.620Z,98642.06
2024-01-18T00:59:23.602Z,98646.44
2024-01-18T01:00:25.638Z,98645.88
2024-01-18T01:01:27.668Z,98647.53
2024-01-18T01:02:29.700Z,98648.91
2024-01-18T01:03:31.908Z,98639.81
2024-01-18T01:04:34.060Z,98646.16
2024-01-18T01:05:36.157Z,98644.22
2024-01-18T01:06:38.266Z,98651.66
2024-01-18T01:07:40.374Z,98656.28
2024-01-18T01:08:42.410Z,98656.28
2024-01-18T01:09:44.532Z,98656.28
2024-01-18T01:10:46.515Z,98661.25
2024-01-18T01:11:48.480Z,98659.31
2024-01-18T01:12:50.469Z,98660.38
2024-01-18T01:13:52.501Z,98656.28
2024-01-18T01:14:54.576Z,98658.69
2024-01-18T01:15:56.708Z,98657.88
2024-01-18T01:16:58.753Z,98664.19
2024-01-18T01:18:00.840Z,98670.50
2024-01-18T01:19:03.010Z,98665.88
2024-01-18T01:20:06.826Z,98671.06
2024-01-18T01:21:09.880Z,98667.50
2024-01-18T01:22:11.943Z,98667.75
2024-01-18T01:23:13.948Z,98665.88
2024-01-18T01:24:16.029Z,98658.69
2024-01-18T01:25:18.116Z,98665.88
2024-01-18T01:26:20.215Z,98663.66
2024-01-18T01:27:22.302Z,98665.34
2024-01-18T01:28:24.388Z,98666.41
2024-01-18T01:29:26.365Z,98663.66
2024-01-18T01:30:28.426Z,98661.78
2024-01-18T01:31:30.465Z,98660.09
2024-01-18T01:32:32.499Z,98662.59
2024-01-18T01:33:35.511Z,98665.06
2024-01-18T01:34:37.612Z,98671.66
2024-01-18T01:35:39.619Z,98673.28
2024-01-18T01:36:41.678Z,98683.44
2024-01-18T01:37:43.716Z,98678.25
2024-01-18T01:38:45.747Z,98681.00
2024-01-18T01:39:47.734Z,98684.81
2024-01-18T01:40:49.753Z,98686.97
2024-01-18T01:41:51.789Z,98692.75
2024-01-18T01:42:53.909Z,98690.25
2024-01-18T01:43:57.425Z,98694.69
2024-01-18T01:44:59.415Z,98694.69
2024-01-18T01:46:01.450Z,98695.75
2024-01-18T01:47:03.467Z,98699.06
2024-01-18T01:48:08.011Z,98702.34
2024-01-18T01:49:10.208Z,98699.84
2024-01-18T01:50:12.624Z,98702.59
2024-01-18T01:51:14.710Z,98705.06
2024-01-18T01:52:18.328Z,98699.59
2024-01-18T01:53:21.545Z,98707.53
2024-01-18T01:54:29.996Z,98708.66
2024-01-18T01:55:33.101Z,98706.72
2024-01-18T01:56:36.989Z,98706.72
2024-01-18T01:57:39.242Z,98701.56
2024-01-18T01:58:41.290Z,98705.94
2024-01-18T01:59:44.056Z,98700.47
2024-01-18T02:00:46.252Z,98701.22
2024-01-18T02:01:49.055Z,98696.84
2024-01-18T02:02:52.303Z,98694.91
2024-01-18T02:03:54.377Z,98702.06
2024-01-18T02:04:56.449Z,98707.81
2024-01-18T02:05:58.704Z,98697.66
2024-01-18T02:07:00.959Z,98699.59
2024-01-18T02:08:03.065Z,98693.00
2024-01-18T02:09:05.209Z,98695.50
2024-01-18T02:10:11.064Z,98701.56
2024-01-18T02:11:13.892Z,98702.38
2024-01-18T02:12:16.278Z,98706.78
2024-01-18T02:13:18.905Z,98703.44
2024-01-18T02:14:20.911Z,98712.25
2024-01-18T02:15:22.941Z,98712.53
2024-01-18T02:16:25.221Z,98719.09
2024-01-18T02:17:27.404Z,98719.63
2024-01-18T02:18:29.672Z,98724.81
2024-01-18T02:19:32.156Z,98714.38
2024-01-18T02:20:34.179Z,98720.94
2024-01-18T02:21:36.229Z,98721.22
2024-01-18T02:22:45.645Z,98727.75
2024-01-18T02:23:53.875Z,98732.19
2024-01-18T02:25:05.048Z,98731.09
2024-01-18T02:26:07.039Z,98733.81
2024-01-18T02:27:09.037Z,98736.84
2024-01-18T02:28:12.273Z,98734.09
2024-01-18T02:29:14.255Z,98736.00
2024-01-18T02:30:16.317Z,98731.03
2024-01-18T02:31:18.340Z,98739.25
2024-01-18T02:32:20.349Z,98741.19
2024-01-18T02:33:22.500Z,98744.75
2024-01-18T02:34:24.797Z,98735.41
2024-01-18T02:35:26.843Z,98739.78
2024-01-18T02:36:28.946Z,98743.88
2024-01-18T02:37:31.650Z,98741.13
2024-01-18T02:38:33.650Z,98735.34
2024-01-18T02:39:36.360Z,98736.44
2024-01-18T02:40:38.636Z,98741.09
2024-01-18T02:41:42.279Z,98738.34
2024-01-18T02:42:44.422Z,98745.50
2024-01-18T02:43:46.626Z,98742.75
2024-01-18T02:44:49.070Z,98745.22
2024-01-18T02:45:51.071Z,98747.16
2024-01-18T02:46:53.354Z,98754.84
2024-01-18T02:47:55.479Z,98757.34
2024-01-18T02:48:57.606Z,98755.19
2024-01-18T02:49:59.702Z,98753.28
2024-01-18T02:51:01.729Z,98758.47
2024-01-18T02:52:04.190Z,98760.69
2024-01-18T02:53:06.164Z,98765.31
2024-01-18T02:54:08.227Z,98759.00
2024-01-18T02:55:10.654Z,98769.16
2024-01-18T02:56:12.709Z,98768.91
2024-01-18T02:57:14.748Z,98769.75
2024-01-18T02:58:18.110Z,98769.75
2024-01-18T02:59:20.071Z,98766.41
2024-01-18T03:00:22.138Z,98767.50
2024-01-18T03:01:24.152Z,98762.56
2024-01-18T03:02:26.163Z,98751.34
2024-01-18T03:03:28.190Z,98760.97
2024-01-18T03:04:30.238Z,98756.84
2024-01-18T03:05:32.839Z,98762.03
2024-01-18T03:06:34.943Z,98752.75
2024-01-18T03:07:37.001Z,98763.44
2024-01-18T03:08:38.981Z,98758.81
2024-01-18T03:09:41.230Z,98758.53
2024-01-18T03:10:43.288Z,98762.09
2024-01-18T03:11:45.271Z,98754.16
2024-01-18T03:12:47.417Z,98756.59
2024-01-18T03:13:49.435Z,98751.94
2024-01-18T03:14:51.423Z,98754.69
2024-01-18T03:15:53.392Z,98754.69
2024-01-18T03:16:55.378Z,98751.94
2024-01-18T03:17:57.533Z,98762.09
2024-01-18T03:18:59.630Z,98762.38
2024-01-18T03:20:01.740Z,98762.09
2024-01-18T03:21:07.072Z,98767.59
2024-01-18T03:22:13.499Z,98767.03
2024-01-18T03:23:17.049Z,98765.38
2024-01-18T03:24:19.633Z,98766.19
2024-01-18T03:25:21.650Z,98765.94
2024-01-18T03:26:23.619Z,98773.06
2024-01-18T03:27:25.611Z,98776.94
2024-01-18T03:28:28.092Z,98780.75
2024-01-18T03:29:30.055Z,98783.50
2024-01-18T03:30:32.056Z,98787.91
2024-01-18T03:31:34.045Z,98780.75
2024-01-18T03:32:36.141Z,98787.91
2024-01-18T03:33:38.727Z,98787.91
2024-01-18T03:34:40.868Z,98781.25
2024-01-18T03:35:43.668Z,98789.50
2024-01-18T03:36:45.775Z,98787.59
2024-01-18T03:37:48.057Z,98785.63
2024-01-18T03:38:50.066Z,98791.94
2024-01-18T03:39:52.145Z,98791.13
2024-01-18T03:40:54.121Z,98793.28
2024-01-18T03:41:56.130Z,98807.00
2024-01-18T03:42:58.106Z,98800.16
2024-01-18T03:44:00.118Z,98804.78
2024-01-18T03:45:02.454Z,98817.91
2024-01-18T03:46:04.528Z,98816.28
2024-01-18T03:47:06.578Z,98812.94
2024-01-18T03:48:08.763Z,98813.22
2024-01-18T03:49:10.881Z,98810.47
2024-01-18T03:50:12.936Z,98803.06
2024-01-18T03:51:14.939Z,98808.56
2024-01-18T03:52:17.745Z,98817.63
2024-01-18T03:53:19.961Z,98823.41
2024-01-18T03:54:22.035Z,98813.00
2024-01-18T03:55:24.026Z,98815.75
2024-01-18T03:56:26.095Z,98816.84
2024-01-18T03:57:28.163Z,98811.09
2024-01-18T03:58:30.179Z,98816.56
2024-01-18T03:59:32.208Z,98811.09
2024-01-18T04:00:34.272Z,98812.75
2024-01-18T04:01:36.396Z,98822.41
2024-01-18T04:02:38.424Z,98825.63
2024-01-18T04:03:43.751Z,98822.34
2024-01-18T04:04:46.021Z,98830.56
2024-01-18T04:05:48.081Z,98829.75
2024-01-18T04:06:50.524Z,98837.13
2024-01-18T04:07:52.985Z,98838.81
2024-01-18T04:08:54.945Z,98833.56
2024-01-18T04:09:57.886Z,98832.97
2024-01-18T04:11:00.202Z,98825.59
2024-01-18T04:12:02.201Z,98830.25
2024-01-18T04:13:04.340Z,98829.16
2024-01-18T04:14:06.415Z,98837.13
2024-01-18T04:15:08.821Z,98838.81
2024-01-18T04:16:10.816Z,98836.06
2024-01-18T04:17:13.336Z,98836.88
2024-01-18T04:18:15.493Z,98840.44
2024-01-18T04:19:17.695Z,98844.03
2024-01-18T04:20:24.172Z,98834.13
2024-01-18T04:21:26.153Z,98840.72
2024-01-18T04:22:28.273Z,98841.78
2024-01-18T04:23:30.259Z,98843.97
2024-01-18T04:24:32.726Z,98848.06
2024-01-18T04:25:34.772Z,98840.91
2024-01-18T04:26:36.821Z,98837.91
2024-01-18T04:27:39.074Z,98850.53
2024-01-18T04:28:41.151Z,98848.63
2024-01-18T04:29:43.155Z,98854.38
2024-01-18T04:30:45.189Z,98852.97
2024-01-18T04:31:47.535Z,98855.72
2024-01-18T04:32:49.571Z,98852.91
2024-01-18T04:33:51.764Z,98856.75
2024-01-18T04:34:53.919Z,98855.06
2024-01-18T04:35:55.909Z,98853.44
2024-01-18T04:36:58.308Z,98845.19
2024-01-18T04:38:00.352Z,98839.72
2024-01-18T04:39:02.393Z,98846.53
2024-01-18T04:40:04.819Z,98845.97
2024-01-18T04:41:06.782Z,98845.66
2024-01-18T04:42:10.055Z,98854.47
2024-01-18T04:43:12.121Z,98856.03
2024-01-18T04:44:14.421Z,98860.69
2024-01-18T04:45:16.460Z,98862.63
2024-01-18T04:46:18.522Z,98856.84
2024-01-18T04:47:20.686Z,98854.69
2024-01-18T04:48:23.911Z,98851.97
2024-01-18T04:49:26.459Z,98849.22
2024-01-18T04:50:28.486Z,98851.13
2024-01-18T04:51:30.562Z,98856.63
2024-01-18T04:52:33.489Z,98853.06
2024-01-18T04:53:35.563Z,98853.06
2024-01-18T04:54:37.580Z,98858.28
2024-01-18T04:55:39.671Z,98862.69
2024-01-18T04:56:41.699Z,98861.06
2024-01-18T04:57:44.945Z,98857.75
2024-01-18T04:58:47.146Z,98849.28
2024-01-18T04:59:49.151Z,98849.88
2024-01-18T05:00:51.356Z,98852.91
2024-01-18T05:01:53.476Z,98854.56
2024-01-18T05:02:55.439Z,98853.75
2024-01-18T05:03:57.414Z,98852.91
2024-01-18T05:04:59.489Z,98845.19
2024-01-18T05:06:01.821Z,98852.59
2024-01-18T05:07:04.343Z,98844.03
2024-01-18T05:08:06.406Z,98847.06
2024-01-18T05:09:11.046Z,98851.72
2024-01-18T05:10:13.429Z,98849.78
2024-01-18T05:11:15.415Z,98857.75
2024-01-18T05:12:17.489Z,98868.72
2024-01-18T05:13:19.587Z,98870.72
2024-01-18T05:14:22.785Z,98865.22
2024-01-18T05:15:26.360Z,98866.63
2024-01-18T05:16:28.635Z,98870.19
2024-01-18T05:17:37.062Z,98868.03
2024-01-18T05:18:39.240Z,98867.22
2024-01-18T05:19:41.318Z,98868.28
2024-01-18T05:20:43.339Z,98866.88
2024-01-18T05:21:45.382Z,98874.56
2024-01-18T05:22:47.480Z,98862.72
2024-01-18T05:23:50.412Z,98863.59
2024-01-18T05:24:52.411Z,98857.00
2024-01-18T05:25:54.440Z,98857.56
2024-01-18T05:26:56.401Z,98860.88
2024-01-18T05:27:58.398Z,98863.38
2024-01-18T05:29:00.501Z,98863.38
2024-01-18T05:30:05.989Z,98878.19
2024-01-18T05:31:08.697Z,98889.16
2024-01-18T05:32:10.723Z,98898.72
2024-01-18T05:33:12.803Z,98909.13
2024-01-18T05:34:14.920Z,98907.13
2024-01-18T05:35:16.935Z,98908.81
2024-01-18T05:36:18.987Z,98901.41
2024-01-18T05:37:23.969Z,98904.47
2024-01-18T05:38:25.942Z,98912.44
2024-01-18T05:39:28.676Z,98917.94
2024-01-18T05:40:30.702Z,98914.63
2024-01-18T05:41:32.689Z,98903.88
2024-01-18T05:42:34.747Z,98897.84
2024-01-18T05:43:36.760Z,98909.06
2024-01-18T05:44:38.764Z,98911.22
2024-01-18T05:45:40.874Z,98918.88
2024-01-18T05:46:42.870Z,98923.78
2024-01-18T05:47:44.871Z,98926.78
2024-01-18T05:48:46.908Z,98930.59
2024-01-18T05:49:49.632Z,98932.53
2024-01-18T05:50:51.715Z,98934.44
2024-01-18T05:51:53.779Z,98939.34
2024-01-18T05:52:55.797Z,98947.56
2024-01-18T05:53:57.805Z,98948.97
2024-01-18T05:55:00.105Z,98948.72
2024-01-18T05:56:02.377Z,98950.13
2024-01-18T05:57:05.635Z,98945.22
2024-01-18T05:58:07.692Z,98949.38
2024-01-18T05:59:09.664Z,98950.47
2024-01-18T06:00:12.077Z,98943.31
2024-01-18T06:01:14.665Z,98949.06
2024-01-18T06:02:16.809Z,98950.94
2024-01-18T06:03:19.718Z,98950.13
2024-01-18T06:04:21.778Z,98950.13
2024-01-18T06:05:23.776Z,98949.06
2024-01-18T06:06:26.880Z,98946.88
2024-01-18T06:07:29.089Z,98954.03
2024-01-18T06:08:31.236Z,98949.38
2024-01-18T06:09:33.427Z,98958.19
2024-01-18T06:10:35.540Z,98968.06
2024-01-18T06:11:37.518Z,98961.50
2024-01-18T06:12:39.718Z,98957.91
2024-01-18T06:13:42.745Z,98957.38
2024-01-18T06:14:45.300Z,98961.44
2024-01-18T06:15:47.474Z,98957.03
2024-01-18T06:16:49.518Z,98964.94
2024-01-18T06:17:51.591Z,98968.69
2024-01-18T06:18:54.366Z,98966.94
2024-01-18T06:19:57.032Z,98971.50
2024-01-18T06:20:59.181Z,98974.22
2024-01-18T06:22:01.605Z,98970.88
2024-01-18T06:23:03.622Z,98975.78
2024-01-18T06:24:06.075Z,98977.41
2024-01-18T06:25:08.109Z,98988.34
2024-01-18T06:26:12.643Z,98994.28
2024-01-18T06:27:14.724Z,98989.16
2024-01-18T06:28:16.780Z,98998.78
2024-01-18T06:29:18.834Z,98991.72
2024-01-18T06:30:21.010Z,98997.28
2024-01-18T06:31:27.500Z,99000.13
2024-01-18T06:32:29.564Z,98987.81
2024-01-18T06:33:31.712Z,98997.44
2024-01-18T06:34:33.851Z,99004.09
2024-01-18T06:35:35.870Z,99004.09
2024-01-18T06:36:40.725Z,99003.03
2024-01-18T06:37:42.973Z,99001.34
2024-01-18T06:38:44.970Z,99008.75
2024-01-18T06:39:47.404Z,99008.75
2024-01-18T06:40:49.764Z,99001.34
2024-01-18T06:41:51.734Z,99007.66
2024-01-18T06:42:53.741Z,99007.66
2024-01-18T06:43:56.390Z,99005.19
2024-01-18T06:44:58.512Z,99008.44
2024-01-18T06:46:00.605Z,99005.31
2024-01-18T06:47:02.696Z,99015.47
2024-01-18T06:48:04.957Z,99021.22
2024-01-18T06:49:07.082Z,99022.28
2024-01-18T06:50:11.115Z,99024.19
2024-01-18T06:51:16.043Z,99025.03
2024-01-18T06:52:18.074Z,99025.88
2024-01-18T06:53:20.134Z,99024.53
2024-01-18T06:54:23.296Z,99032.53
2024-01-18T06:55:25.292Z,99031.44
2024-01-18T06:56:27.979Z,99039.66
2024-01-18T06:57:30.062Z,99033.66
2024-01-18T06:58:32.071Z,99042.47
2024-01-18T06:59:34.046Z,99034.84
2024-01-18T07:00:36.231Z,99041.97
2024-01-18T07:01:38.324Z,99034.34
2024-01-18T07:02:40.380Z,99020.38
2024-01-18T07:03:43.688Z,99025.88
2024-01-18T07:04:46.497Z,99032.41
2024-01-18T07:05:49.967Z,99038.41
2024-01-18T07:06:52.003Z,99035.34
2024-01-18T07:07:54.215Z,99032.00
2024-01-18T07:08:56.204Z,99039.41
2024-01-18T07:09:58.268Z,99034.16
2024-01-18T07:11:02.598Z,99032.53
2024-01-18T07:12:05.053Z,99031.69
2024-01-18T07:13:07.299Z,99039.91
2024-01-18T07:14:09.344Z,99038.59
2024-01-18T07:15:11.345Z,99036.69
2024-01-18T07:16:13.472Z,99034.75
2024-01-18T07:17:15.449Z,99030.38
2024-01-18T07:18:17.528Z,99030.88
2024-01-18T07:19:19.652Z,99031.38
2024-01-18T07:20:21.756Z,99025.28
2024-01-18T07:21:24.044Z,99027.69
2024-01-18T07:22:27.460Z,99024.13
2024-01-18T07:23:29.435Z,99026.84
2024-01-18T07:24:32.233Z,99020.56
2024-01-18T07:25:34.296Z,99027.69
2024-01-18T07:26:36.279Z,99029.59
2024-01-18T07:27:38.302Z,99031.28
2024-01-18T07:28:40.277Z,99025.53
2024-01-18T07:29:42.251Z,99032.69
2024-01-18T07:30:44.607Z,99032.44
2024-01-18T07:31:48.264Z,99037.09
2024-01-18T07:32:50.621Z,99037.91
2024-01-18T07:33:52.742Z,99036.25
2024-01-18T07:34:54.828Z,99031.84
2024-01-18T07:35:56.845Z,99034.59
2024-01-18T07:36:59.517Z,99036.50
2024-01-18T07:38:01.748Z,99038.09
2024-01-18T07:39:04.053Z,99035.59
2024-01-18T07:40:07.347Z,99037.75
2024-01-18T07:41:09.307Z,99034.19
2024-01-18T07:42:11.307Z,99033.34
2024-01-18T07:43:13.920Z,99030.53
2024-01-18T07:44:15.930Z,99032.44
2024-01-18T07:45:17.926Z,99029.09
2024-01-18T07:46:19.920Z,99032.66
2024-01-18T07:47:21.891Z,99030.78
2024-01-18T07:48:24.000Z,99026.72
2024-01-18T07:49:26.072Z,99027.53
2024-01-18T07:50:35.021Z,99029.47
2024-01-18T07:51:38.906Z,99031.69
2024-01-18T07:52:41.126Z,99035.00
2024-01-18T07:53:43.100Z,99035.34
2024-01-18T07:54:45.168Z,99031.78
2024-01-18T07:55:47.286Z,99037.28
2024-01-18T07:56:49.315Z,99027.63
2024-01-18T07:57:51.479Z,99029.78
2024-01-18T07:58:53.490Z,99035.25
2024-01-18T07:59:55.460Z,99032.53
2024-01-18T08:00:57.635Z,99035.84
2024-01-18T08:02:00.693Z,99036.69
2024-01-18T08:03:03.253Z,99048.47
2024-01-18T08:04:06.858Z,99046.81
2024-01-18T08:05:09.109Z,99047.06
2024-01-18T08:06:12.400Z,99049.81
2024-01-18T08:07:14.619Z,99043.72
2024-01-18T08:08:16.642Z,99050.91
2024-01-18T08:09:18.672Z,99048.72
2024-01-18T08:10:20.742Z,99051.22
2024-01-18T08:11:22.733Z,99053.13
2024-01-18T08:12:24.740Z,99062.41
2024-01-18T08:13:26.710Z,99057.78
2024-01-18T08:14:28.668Z,99059.69
2024-01-18T08:15:30.737Z,99063.28
2024-01-18T08:16:32.736Z,99061.09
2024-01-18T08:17:34.785Z,99049.88
2024-01-18T08:18:37.857Z,99055.09
2024-01-18T08:19:40.885Z,99060.94
2024-01-18T08:20:43.699Z,99062.59
2024-01-18T08:21:45.728Z,99071.16
2024-01-18T08:22:47.815Z,99067.09
2024-01-18T08:23:49.856Z,99074.81
2024-01-18T08:24:51.935Z,99081.16
2024-01-18T08:25:54.012Z,99080.66
2024-01-18T08:26:56.024Z,99082.56
2024-01-18T08:27:58.422Z,99086.97
2024-01-18T08:29:00.454Z,99088.38
2024-01-18T08:30:02.510Z,99092.22
2024-01-18T08:31:04.633Z,99094.69
2024-01-18T08:32:07.255Z,99096.34
2024-01-18T08:33:09.732Z,99098.03
2024-01-18T08:34:12.075Z,99098.84
2024-01-18T08:35:14.074Z,99099.69
2024-01-18T08:36:16.242Z,99095.28
2024-01-18T08:37:18.420Z,99097.44
2024-01-18T08:38:22.110Z,99099.34
2024-01-18T08:39:24.370Z,99097.44
2024-01-18T08:40:26.383Z,99089.69
2024-01-18T08:41:28.395Z,99089.69
2024-01-18T08:42:30.403Z,99088.06
2024-01-18T08:43:32.544Z,99092.94
2024-01-18T08:44:34.803Z,99092.34
2024-01-18T08:45:37.958Z,99104.97
2024-01-18T08:46:40.589Z,99092.34
2024-01-18T08:47:42.599Z,99103.91
2024-01-18T08:48:44.751Z,99098.44
2024-01-18T08:49:46.820Z,99103.91
2024-01-18T08:50:49.042Z,99107.25
2024-01-18T08:51:51.130Z,99102.31
2024-01-18T08:52:53.177Z,99094.69
2024-01-18T08:53:55.149Z,99096.34
2024-01-18T08:54:57.149Z,99098.84
2024-01-18T08:55:59.180Z,99099.69
2024-01-18T08:57:01.232Z,99103.00
2024-01-18T08:58:03.212Z,99101.91
2024-01-18T08:59:05.196Z,99105.25
2024-01-18T09:00:07.774Z,99103.34
2024-01-18T09:01:09.917Z,99110.22
2024-01-18T09:02:20.350Z,99105.84
2024-01-18T09:03:25.622Z,99110.50
2024-01-18T09:04:27.672Z,99110.22
2024-01-18T09:05:29.700Z,99111.91
2024-01-18T09:06:31.776Z,99121.22
2024-01-18T09:07:33.944Z,99121.22
2024-01-18T09:08:36.038Z,99119.28
2024-01-18T09:09:38.041Z,99122.88
2024-01-18T09:10:40.026Z,99116.03
2024-01-18T09:11:42.705Z,99118.56
2024-01-18T09:12:47.142Z,99125.13
2024-01-18T09:13:49.301Z,99122.13
2024-01-18T09:14:51.265Z,99128.19
2024-01-18T09:15:53.356Z,99135.09
2024-01-18T09:16:55.364Z,99132.09
2024-01-18T09:17:57.398Z,99133.28
2024-01-18T09:19:13.361Z,99132.94
2024-01-18T09:20:17.114Z,99137.84
2024-01-18T09:21:19.511Z,99141.69
2024-01-18T09:22:21.813Z,99155.88
2024-01-18T09:23:23.795Z,99154.00
2024-01-18T09:24:25.844Z,99153.13
2024-01-18T09:25:28.082Z,99161.38
2024-01-18T09:26:30.124Z,99168.53
2024-01-18T09:27:32.197Z,99169.13
2024-01-18T09:28:34.242Z,99167.22
2024-01-18T09:29:36.454Z,99174.34
2024-01-18T09:30:41.339Z,99176.84
2024-01-18T09:31:45.450Z,99170.28
2024-01-18T09:32:49.122Z,99171.09
2024-01-18T09:33:51.261Z,99167.53
2024-01-18T09:34:53.332Z,99170.88
2024-01-18T09:35:55.380Z,99175.78
2024-01-18T09:36:58.391Z,99169.44
2024-01-18T09:38:00.722Z,99167.53
2024-01-18T09:39:02.889Z,99170.88
2024-01-18T09:40:05.563Z,99176.09
2024-01-18T09:41:08.501Z,99172.53
2024-01-18T09:42:15.705Z,99171.44
2024-01-18T09:43:19.602Z,99181.34
2024-01-18T09:44:31.414Z,99184.31
2024-01-18T09:45:36.727Z,99187.34
2024-01-18T09:46:39.721Z,99194.47
2024-01-18T09:47:43.875Z,99192.00
2024-01-18T09:48:46.319Z,99199.97
2024-01-18T09:49:49.445Z,99200.56
2024-01-18T09:50:53.021Z,99203.03
2024-01-18T09:51:59.064Z,99201.97
2024-01-18T09:53:01.061Z,99207.19
2024-01-18T09:54:03.063Z,99208.88
2024-01-18T09:55:05.576Z,99206.13
2024-01-18T09:56:26.209Z,99204.22
2024-01-18T09:57:33.688Z,99196.81
2024-01-18T09:58:35.898Z,99201.22
2024-01-18T09:59:39.387Z,99206.69
2024-01-18T10:00:47.805Z,99204.53
2024-01-18T10:01:50.189Z,99201.81
2024-01-18T10:02:53.762Z,99199.56
2024-01-18T10:03:56.271Z,99204.22
2024-01-18T10:05:01.498Z,99203.13
2024-01-18T10:06:03.861Z,99205.03
2024-01-18T10:07:06.160Z,99203.13
2024-01-18T10:08:08.424Z,99196.22
2024-01-18T10:09:15.950Z,99202.88
2024-01-18T10:10:19.759Z,99196.56
2024-01-18T10:11:21.805Z,99206.13
2024-01-18T10:12:30.288Z,99204.22
2024-01-18T10:13:57.500Z,99200.97
2024-01-18T10:14:59.585Z,99203.47
2024-01-18T10:16:01.627Z,99208.97
2024-01-18T10:17:03.621Z,99203.22
2024-01-18T10:18:07.427Z,99209.28
2024-01-18T10:19:19.562Z,99200.78
2024-01-18T10:20:24.151Z,99204.13
2024-01-18T10:21:26.347Z,99209.13
2024-01-18T10:22:29.802Z,99211.63
2024-01-18T10:23:31.786Z,99206.97
2024-01-18T10:24:40.780Z,99215.19
2024-01-18T10:25:45.745Z,99219.03
2024-01-18T10:26:47.757Z,99214.69
2024-01-18T10:27:53.547Z,99213.63
2024-01-18T10:29:00.424Z,99210.63
2024-01-18T10:30:04.226Z,99210.63
2024-01-18T10:31:06.209Z,99217.78
2024-01-18T10:32:08.663Z,99214.78
2024-01-18T10:33:13.044Z,99212.88
2024-01-18T10:34:15.940Z,99215.13
2024-01-18T10:35:21.228Z,99216.19
2024-01-18T10:36:23.230Z,99223.34
2024-01-18T10:37:25.229Z,99225.84
2024-01-18T10:38:40.790Z,99220.38
2024-01-18T10:39:47.413Z,99223.94
2024-01-18T10:40:51.374Z,99230.25
2024-01-18T10:41:53.598Z,99222.59
2024-01-18T10:42:56.334Z,99225.34
2024-01-18T10:43:58.408Z,99220.69
2024-01-18T10:45:01.454Z,99233.09
2024-01-18T10:46:04.590Z,99230.63
2024-01-18T10:47:14.320Z,99232.25
2024-01-18T10:48:16.432Z,99238.59
2024-01-18T10:49:18.503Z,99242.97
2024-01-18T10:50:20.757Z,99236.44
2024-01-18T10:51:24.899Z,99240.22
2024-01-18T10:52:27.245Z,99246.59
2024-01-18T10:53:37.973Z,99240.81
2024-01-18T10:54:46.810Z,99241.41
2024-01-18T10:55:55.983Z,99243.56
2024-01-18T10:56:58.838Z,99240.22
2024-01-18T10:58:00.899Z,99235.34
2024-01-18T10:59:02.961Z,99239.75
2024-01-18T11:00:08.478Z,99231.25
2024-01-18T11:01:11.894Z,99236.50
2024-01-18T11:02:14.549Z,99239.81
2024-01-18T11:03:19.885Z,99237.06
2024-01-18T11:04:22.104Z,99243.16
2024-01-18T11:05:24.591Z,99242.09
2024-01-18T11:06:28.084Z,99235.75
2024-01-18T11:07:30.410Z,99247.59
2024-01-18T11:08:34.286Z,99242.91
2024-01-18T11:09:37.929Z,99245.66
2024-01-18T11:10:43.804Z,99242.09
2024-01-18T11:11:45.967Z,99248.66
2024-01-18T11:12:50.585Z,99237.94
2024-01-18T11:13:53.069Z,99251.41
2024-01-18T11:14:55.284Z,99250.34
2024-01-18T11:15:57.524Z,99255.56
2024-01-18T11:17:12.557Z,99256.38
2024-01-18T11:18:15.700Z,99260.22
2024-01-18T11:19:44.829Z,99267.38
2024-01-18T11:20:58.718Z,99271.81
2024-01-18T11:22:01.070Z,99276.19
2024-01-18T11:23:04.656Z,99269.38
2024-01-18T11:24:11.830Z,99266.38
2024-01-18T11:25:20.706Z,99268.03
2024-01-18T11:26:22.819Z,99257.88
2024-01-18T11:27:26.024Z,99264.72
2024-01-18T11:28:28.186Z,99267.47
2024-01-18T11:29:35.871Z,99272.94
2024-01-18T11:30:40.846Z,99272.72
2024-01-18T11:31:51.868Z,99268.78
2024-01-18T11:32:54.744Z,99269.06
2024-01-18T11:33:56.857Z,99261.88
2024-01-18T11:35:16.350Z,99265.72
2024-01-18T11:36:18.482Z,99271.81
2024-01-18T11:37:25.618Z,99269.06
2024-01-18T11:38:34.780Z,99264.13
2024-01-18T11:39:48.926Z,99273.22
2024-01-18T11:40:53.078Z,99280.59
2024-01-18T11:41:59.494Z,99277.84
2024-01-18T11:43:01.650Z,99281.19
2024-01-18T11:44:10.889Z,99284.22
2024-01-18T11:45:17.911Z,99286.38
2024-01-18T11:46:38.195Z,99288.53
2024-01-18T11:47:40.693Z,99284.13
2024-01-18T11:48:42.862Z,99286.03
2024-01-18T11:49:45.088Z,99292.59
2024-01-18T11:50:47.433Z,99295.34
2024-01-18T11:51:50.464Z,99292.88
2024-01-18T11:52:52.734Z,99293.94
2024-01-18T11:53:55.741Z,99297.50
2024-01-18T11:54:58.036Z,99284.28
2024-01-18T11:56:02.907Z,99291.94
2024-01-18T11:57:14.114Z,99288.13
2024-01-18T11:58:16.268Z,99287.00
2024-01-18T11:59:18.329Z,99285.09
2024-01-18T12:00:20.677Z,99288.69
2024-01-18T12:01:23.338Z,99284.03
2024-01-18T12:02:26.289Z,99284.88
2024-01-18T12:03:28.539Z,99283.75
2024-01-18T12:04:30.682Z,99286.50
2024-01-18T12:05:32.694Z,99282.72
2024-01-18T12:06:34.938Z,99287.59
2024-01-18T12:07:37.339Z,99285.97
2024-01-18T12:08:39.346Z,99282.84
2024-01-18T12:09:41.412Z,99283.13
2024-01-18T12:11:47.354Z,99278.38
2024-01-18T12:12:51.742Z,99281.94
2024-01-18T12:13:53.905Z,99277.31
2024-01-18T12:14:55.940Z,99286.38
2024-01-18T12:15:57.977Z,99286.59
2024-01-18T12:17:01.330Z,99283.84
2024-01-18T12:18:03.817Z,99287.69
2024-01-18T12:19:07.117Z,99286.59
2024-01-18T12:20:18.895Z,99294.00